sensor_id;sensor_type;location;lat;lon;timestamp;temperature;humidity
13205;DHT22;6667;52.634;9.226;2023-05-10T00:02:18;14.90;99.90
13205;DHT22;6667;52.634;9.226;2023-05-10T00:04:46;14.90;99.90
13205;DHT22;6667;52.634;9.226;2023-05-10T00:07:13;14.90;99.90
13205;DHT22;6667;52.634;9.226;2023-05-10T00:09:41;14.90;99.90
13205;DHT22;6667;52.634;9.226;2023-05-10T00:12:08;14.90;99.90
13205;DHT22;6667;52.634;9.226;2023-05-10T00:14:35;14.90;99.90
13205;DHT22;6667;52.634;9.226;2023-05-10T00:17:01;14.80;99.90
13205;DHT22;6667;52.634;9.226;2023-05-10T00:19:28;14.80;99.90
13205;DHT22;6667;52.634;9.226;2023-05-10T00:21:56;14.70;99.90
13205;DHT22;6667;52.634;9.226;2023-05-10T00:24:23;14.70;99.90
13205;DHT22;6667;52.634;9.226;2023-05-10T00:26:50;14.70;99.90
13205;DHT22;6667;52.634;9.226;2023-05-10T00:29:17;14.70;99.90
13205;DHT22;6667;52.634;9.226;2023-05-10T00:31:43;14.60;99.90
13205;DHT22;6667;52.634;9.226;2023-05-10T00:34:10;14.60;99.90
13205;DHT22;6667;52.634;9.226;2023-05-10T00:36:37;14.60;99.90
13205;DHT22;6667;52.634;9.226;2023-05-10T00:39:05;14.60;99.90
13205;DHT22;6667;52.634;9.226;2023-05-10T00:41:32;14.60;99.90
13205;DHT22;6667;52.634;9.226;2023-05-10T00:43:59;14.50;99.90
13205;DHT22;6667;52.634;9.226;2023-05-10T00:46:26;14.50;99.90
13205;DHT22;6667;52.634;9.226;2023-05-10T00:48:53;14.40;99.90
13205;DHT22;6667;52.634;9.226;2023-05-10T00:51:20;14.40;99.90
13205;DHT22;6667;52.634;9.226;2023-05-10T00:53:48;14.30;99.90
13205;DHT22;6667;52.634;9.226;2023-05-10T00:56:17;14.30;99.90
13205;DHT22;6667;52.634;9.226;2023-05-10T00:58:45;14.30;99.90
13205;DHT22;6667;52.634;9.226;2023-05-10T01:01:12;14.20;99.90
13205;DHT22;6667;52.634;9.226;2023-05-10T01:03:40;14.20;99.90
13205;DHT22;6667;52.634;9.226;2023-05-10T01:06:07;14.20;99.90
13205;DHT22;6667;52.634;9.226;2023-05-10T01:08:35;14.20;99.90
13205;DHT22;6667;52.634;9.226;2023-05-10T01:11:02;14.00;99.90
13205;DHT22;6667;52.634;9.226;2023-05-10T01:13:33;14.00;99.90
13205;DHT22;6667;52.634;9.226;2023-05-10T01:16:01;14.00;99.90
13205;DHT22;6667;52.634;9.226;2023-05-10T01:18:29;14.00;99.90
13205;DHT22;6667;52.634;9.226;2023-05-10T01:21:07;14.00;99.90
13205;DHT22;6667;52.634;9.226;2023-05-10T01:23:49;13.90;99.90
13205;DHT22;6667;52.634;9.226;2023-05-10T01:26:41;14.00;99.90
13205;DHT22;6667;52.634;9.226;2023-05-10T01:29:24;13.90;99.90
13205;DHT22;6667;52.634;9.226;2023-05-10T01:32:22;13.80;99.90
13205;DHT22;6667;52.634;9.226;2023-05-10T01:34:59;13.70;99.90
13205;DHT22;6667;52.634;9.226;2023-05-10T01:37:33;13.80;99.90
13205;DHT22;6667;52.634;9.226;2023-05-10T01:40:10;13.70;99.90
13205;DHT22;6667;52.634;9.226;2023-05-10T01:42:43;13.70;99.90
13205;DHT22;6667;52.634;9.226;2023-05-10T01:45:20;13.70;99.90
13205;DHT22;6667;52.634;9.226;2023-05-10T01:47:58;13.80;99.90
13205;DHT22;6667;52.634;9.226;2023-05-10T01:50:29;13.70;99.90
13205;DHT22;6667;52.634;9.226;2023-05-10T01:52:57;13.70;99.90
13205;DHT22;6667;52.634;9.226;2023-05-10T01:55:28;13.70;99.90
13205;DHT22;6667;52.634;9.226;2023-05-10T01:58:02;13.60;99.90
13205;DHT22;6667;52.634;9.226;2023-05-10T02:00:29;13.70;99.90
13205;DHT22;6667;52.634;9.226;2023-05-10T02:02:59;13.70;99.90
13205;DHT22;6667;52.634;9.226;2023-05-10T02:05:29;13.70;99.90
13205;DHT22;6667;52.634;9.226;2023-05-10T02:07:58;13.60;99.90
13205;DHT22;6667;52.634;9.226;2023-05-10T02:10:26;13.40;99.90
13205;DHT22;6667;52.634;9.226;2023-05-10T02:12:54;13.40;99.90
13205;DHT22;6667;52.634;9.226;2023-05-10T02:15:23;13.40;99.90
13205;DHT22;6667;52.634;9.226;2023-05-10T02:17:51;13.40;99.90
13205;DHT22;6667;52.634;9.226;2023-05-10T02:20:20;13.30;99.90
13205;DHT22;6667;52.634;9.226;2023-05-10T02:22:49;13.30;99.90
13205;DHT22;6667;52.634;9.226;2023-05-10T02:25:18;13.20;99.90
13205;DHT22;6667;52.634;9.226;2023-05-10T02:27:46;13.20;99.90
13205;DHT22;6667;52.634;9.226;2023-05-10T02:30:14;13.20;99.90
13205;DHT22;6667;52.634;9.226;2023-05-10T02:32:42;13.20;99.90
13205;DHT22;6667;52.634;9.226;2023-05-10T02:35:09;13.20;99.90
13205;DHT22;6667;52.634;9.226;2023-05-10T02:37:38;13.20;99.90
13205;DHT22;6667;52.634;9.226;2023-05-10T02:40:07;13.10;99.90
13205;DHT22;6667;52.634;9.226;2023-05-10T02:42:36;13.10;99.90
13205;DHT22;6667;52.634;9.226;2023-05-10T02:45:08;13.10;99.90
13205;DHT22;6667;52.634;9.226;2023-05-10T02:47:37;13.10;99.90
13205;DHT22;6667;52.634;9.226;2023-05-10T02:50:04;13.10;99.90
13205;DHT22;6667;52.634;9.226;2023-05-10T02:52:41;13.10;99.90
13205;DHT22;6667;52.634;9.226;2023-05-10T02:55:12;13.00;99.90
13205;DHT22;6667;52.634;9.226;2023-05-10T02:57:43;13.00;99.90
13205;DHT22;6667;52.634;9.226;2023-05-10T03:00:12;13.00;99.90
13205;DHT22;6667;52.634;9.226;2023-05-10T03:02:38;13.00;99.90
13205;DHT22;6667;52.634;9.226;2023-05-10T03:05:06;13.00;99.90
13205;DHT22;6667;52.634;9.226;2023-05-10T03:07:56;13.00;99.90
13205;DHT22;6667;52.634;9.226;2023-05-10T03:10:32;13.00;99.90
13205;DHT22;6667;52.634;9.226;2023-05-10T03:13:07;13.00;99.90
13205;DHT22;6667;52.634;9.226;2023-05-10T03:15:47;12.90;99.90
13205;DHT22;6667;52.634;9.226;2023-05-10T03:18:32;12.90;99.90
13205;DHT22;6667;52.634;9.226;2023-05-10T03:21:12;12.90;99.90
13205;DHT22;6667;52.634;9.226;2023-05-10T03:27:10;12.90;99.90
13205;DHT22;6667;52.634;9.226;2023-05-10T03:29:39;12.90;99.90
13205;DHT22;6667;52.634;9.226;2023-05-10T03:32:07;12.90;99.90
13205;DHT22;6667;52.634;9.226;2023-05-10T03:34:34;12.90;99.90
13205;DHT22;6667;52.634;9.226;2023-05-10T03:40:14;12.90;99.90
13205;DHT22;6667;52.634;9.226;2023-05-10T03:42:52;12.80;99.90
13205;DHT22;6667;52.634;9.226;2023-05-10T03:48:25;12.70;99.90
13205;DHT22;6667;52.634;9.226;2023-05-10T03:50:53;12.60;99.90
13205;DHT22;6667;52.634;9.226;2023-05-10T03:53:39;12.70;99.90
13205;DHT22;6667;52.634;9.226;2023-05-10T03:56:12;12.60;99.90
13205;DHT22;6667;52.634;9.226;2023-05-10T03:58:46;12.60;99.90
13205;DHT22;6667;52.634;9.226;2023-05-10T04:01:16;12.70;99.90
13205;DHT22;6667;52.634;9.226;2023-05-10T04:03:53;12.60;99.90
13205;DHT22;6667;52.634;9.226;2023-05-10T04:06:21;12.60;99.90
13205;DHT22;6667;52.634;9.226;2023-05-10T04:09:06;12.50;99.90
13205;DHT22;6667;52.634;9.226;2023-05-10T04:11:47;12.40;99.90
13205;DHT22;6667;52.634;9.226;2023-05-10T04:14:20;12.50;99.90
13205;DHT22;6667;52.634;9.226;2023-05-10T04:16:48;12.40;99.90
13205;DHT22;6667;52.634;9.226;2023-05-10T04:19:15;12.40;99.90
13205;DHT22;6667;52.634;9.226;2023-05-10T04:21:49;12.40;99.90
13205;DHT22;6667;52.634;9.226;2023-05-10T04:24:27;12.40;99.90
13205;DHT22;6667;52.634;9.226;2023-05-10T04:30:53;12.40;99.90
13205;DHT22;6667;52.634;9.226;2023-05-10T04:33:27;12.30;99.90
13205;DHT22;6667;52.634;9.226;2023-05-10T04:35:54;12.20;99.90
13205;DHT22;6667;52.634;9.226;2023-05-10T04:38:21;12.30;99.90
13205;DHT22;6667;52.634;9.226;2023-05-10T04:40:47;12.30;99.90
13205;DHT22;6667;52.634;9.226;2023-05-10T04:43:14;12.40;99.90
13205;DHT22;6667;52.634;9.226;2023-05-10T04:45:41;12.30;99.90
13205;DHT22;6667;52.634;9.226;2023-05-10T04:48:09;12.20;99.90
13205;DHT22;6667;52.634;9.226;2023-05-10T04:50:36;12.20;99.90
13205;DHT22;6667;52.634;9.226;2023-05-10T04:53:02;12.30;99.90
13205;DHT22;6667;52.634;9.226;2023-05-10T04:55:29;12.30;99.90
13205;DHT22;6667;52.634;9.226;2023-05-10T04:57:56;12.30;99.90
13205;DHT22;6667;52.634;9.226;2023-05-10T05:00:24;12.30;99.90
13205;DHT22;6667;52.634;9.226;2023-05-10T05:02:51;12.30;99.90
13205;DHT22;6667;52.634;9.226;2023-05-10T05:05:19;12.30;99.90
13205;DHT22;6667;52.634;9.226;2023-05-10T05:07:46;12.40;99.90
13205;DHT22;6667;52.634;9.226;2023-05-10T05:10:12;12.40;99.90
13205;DHT22;6667;52.634;9.226;2023-05-10T05:12:39;12.30;99.90
13205;DHT22;6667;52.634;9.226;2023-05-10T05:15:07;12.20;99.90
13205;DHT22;6667;52.634;9.226;2023-05-10T05:17:34;12.30;99.90
13205;DHT22;6667;52.634;9.226;2023-05-10T05:20:01;12.40;99.90
13205;DHT22;6667;52.634;9.226;2023-05-10T05:22:30;12.40;99.90
13205;DHT22;6667;52.634;9.226;2023-05-10T05:24:57;12.40;99.90
13205;DHT22;6667;52.634;9.226;2023-05-10T05:27:24;12.20;99.90
13205;DHT22;6667;52.634;9.226;2023-05-10T05:29:53;12.10;99.90
13205;DHT22;6667;52.634;9.226;2023-05-10T05:32:20;11.90;99.90
13205;DHT22;6667;52.634;9.226;2023-05-10T05:34:47;11.80;99.90
13205;DHT22;6667;52.634;9.226;2023-05-10T05:37:14;11.70;99.90
13205;DHT22;6667;52.634;9.226;2023-05-10T05:39:43;11.50;99.90
13205;DHT22;6667;52.634;9.226;2023-05-10T05:42:10;11.60;99.90
13205;DHT22;6667;52.634;9.226;2023-05-10T05:44:37;11.60;99.90
13205;DHT22;6667;52.634;9.226;2023-05-10T05:47:04;11.60;99.90
13205;DHT22;6667;52.634;9.226;2023-05-10T05:49:31;11.50;99.90
13205;DHT22;6667;52.634;9.226;2023-05-10T05:51:59;11.50;99.90
13205;DHT22;6667;52.634;9.226;2023-05-10T05:54:26;11.40;99.90
13205;DHT22;6667;52.634;9.226;2023-05-10T05:56:55;11.40;99.90
13205;DHT22;6667;52.634;9.226;2023-05-10T05:59:22;11.30;99.90
13205;DHT22;6667;52.634;9.226;2023-05-10T06:01:49;11.30;99.90
13205;DHT22;6667;52.634;9.226;2023-05-10T06:04:16;11.20;99.90
13205;DHT22;6667;52.634;9.226;2023-05-10T06:06:43;11.20;99.90
13205;DHT22;6667;52.634;9.226;2023-05-10T06:09:10;11.30;99.90
13205;DHT22;6667;52.634;9.226;2023-05-10T06:11:37;11.40;99.90
13205;DHT22;6667;52.634;9.226;2023-05-10T06:14:06;11.60;99.90
13205;DHT22;6667;52.634;9.226;2023-05-10T06:16:33;11.70;99.90
13205;DHT22;6667;52.634;9.226;2023-05-10T06:19:00;11.80;99.90
13205;DHT22;6667;52.634;9.226;2023-05-10T06:21:27;11.90;99.90
13205;DHT22;6667;52.634;9.226;2023-05-10T06:23:53;11.90;99.90
13205;DHT22;6667;52.634;9.226;2023-05-10T06:26:20;11.90;99.90
13205;DHT22;6667;52.634;9.226;2023-05-10T06:28:47;11.90;99.90
13205;DHT22;6667;52.634;9.226;2023-05-10T06:31:15;11.90;99.90
13205;DHT22;6667;52.634;9.226;2023-05-10T06:33:42;12.00;99.90
13205;DHT22;6667;52.634;9.226;2023-05-10T06:36:08;12.10;4.70
13205;DHT22;6667;52.634;9.226;2023-05-10T06:38:35;12.00;99.90
13205;DHT22;6667;52.634;9.226;2023-05-10T06:41:02;12.00;1.00
13205;DHT22;6667;52.634;9.226;2023-05-10T06:43:29;12.10;99.90
13205;DHT22;6667;52.634;9.226;2023-05-10T06:45:56;12.10;99.90
13205;DHT22;6667;52.634;9.226;2023-05-10T06:48:24;12.20;99.90
13205;DHT22;6667;52.634;9.226;2023-05-10T06:50:50;12.20;99.90
13205;DHT22;6667;52.634;9.226;2023-05-10T06:53:17;12.30;99.90
13205;DHT22;6667;52.634;9.226;2023-05-10T06:55:44;12.40;99.90
13205;DHT22;6667;52.634;9.226;2023-05-10T06:58:10;12.50;99.90
13205;DHT22;6667;52.634;9.226;2023-05-10T07:00:37;12.50;1.00
13205;DHT22;6667;52.634;9.226;2023-05-10T07:03:05;12.50;1.00
13205;DHT22;6667;52.634;9.226;2023-05-10T07:05:34;12.60;99.90
13205;DHT22;6667;52.634;9.226;2023-05-10T07:08:00;12.60;99.90
13205;DHT22;6667;52.634;9.226;2023-05-10T07:10:27;12.70;99.90
13205;DHT22;6667;52.634;9.226;2023-05-10T07:12:54;12.80;99.90
13205;DHT22;6667;52.634;9.226;2023-05-10T07:15:22;12.90;1.00
13205;DHT22;6667;52.634;9.226;2023-05-10T07:17:48;12.90;28.60
13205;DHT22;6667;52.634;9.226;2023-05-10T07:20:15;13.00;99.90
13205;DHT22;6667;52.634;9.226;2023-05-10T07:22:43;13.00;99.90
13205;DHT22;6667;52.634;9.226;2023-05-10T07:25:10;13.10;99.90
13205;DHT22;6667;52.634;9.226;2023-05-10T07:27:37;13.10;99.90
13205;DHT22;6667;52.634;9.226;2023-05-10T07:30:04;13.20;1.00
13205;DHT22;6667;52.634;9.226;2023-05-10T07:32:31;13.20;1.00
13205;DHT22;6667;52.634;9.226;2023-05-10T07:34:58;13.30;1.00
13205;DHT22;6667;52.634;9.226;2023-05-10T07:37:25;13.40;1.00
13205;DHT22;6667;52.634;9.226;2023-05-10T07:39:53;13.60;99.90
13205;DHT22;6667;52.634;9.226;2023-05-10T07:42:19;13.70;1.00
13205;DHT22;6667;52.634;9.226;2023-05-10T07:44:46;13.70;99.90
13205;DHT22;6667;52.634;9.226;2023-05-10T07:47:13;13.70;1.00
13205;DHT22;6667;52.634;9.226;2023-05-10T07:49:39;13.70;96.00
13205;DHT22;6667;52.634;9.226;2023-05-10T07:52:06;13.80;99.90
13205;DHT22;6667;52.634;9.226;2023-05-10T07:54:33;13.80;99.90
13205;DHT22;6667;52.634;9.226;2023-05-10T07:57:01;13.90;99.90
13205;DHT22;6667;52.634;9.226;2023-05-10T07:59:28;13.90;99.90
13205;DHT22;6667;52.634;9.226;2023-05-10T08:01:55;14.00;99.90
13205;DHT22;6667;52.634;9.226;2023-05-10T08:04:21;14.10;1.00
13205;DHT22;6667;52.634;9.226;2023-05-10T08:06:48;14.10;1.00
13205;DHT22;6667;52.634;9.226;2023-05-10T08:09:15;14.20;1.00
13205;DHT22;6667;52.634;9.226;2023-05-10T08:11:43;14.30;1.00
13205;DHT22;6667;52.634;9.226;2023-05-10T08:14:11;14.40;99.90
13205;DHT22;6667;52.634;9.226;2023-05-10T08:16:37;14.40;1.00
13205;DHT22;6667;52.634;9.226;2023-05-10T08:19:04;14.50;1.00
13205;DHT22;6667;52.634;9.226;2023-05-10T08:21:31;14.60;99.90
13205;DHT22;6667;52.634;9.226;2023-05-10T08:23:58;14.60;1.00
13205;DHT22;6667;52.634;9.226;2023-05-10T08:26:25;14.60;99.90
13205;DHT22;6667;52.634;9.226;2023-05-10T08:28:51;14.60;90.00
13205;DHT22;6667;52.634;9.226;2023-05-10T08:31:20;14.70;1.00
13205;DHT22;6667;52.634;9.226;2023-05-10T08:33:46;14.80;99.90
13205;DHT22;6667;52.634;9.226;2023-05-10T08:36:13;14.90;99.90
13205;DHT22;6667;52.634;9.226;2023-05-10T08:38:45;14.90;99.90
13205;DHT22;6667;52.634;9.226;2023-05-10T08:41:11;15.00;40.90
13205;DHT22;6667;52.634;9.226;2023-05-10T08:43:38;15.00;99.90
13205;DHT22;6667;52.634;9.226;2023-05-10T08:46:07;15.00;93.30
13205;DHT22;6667;52.634;9.226;2023-05-10T08:48:37;15.00;1.00
13205;DHT22;6667;52.634;9.226;2023-05-10T08:51:05;15.00;99.90
13205;DHT22;6667;52.634;9.226;2023-05-10T08:53:35;15.10;1.00
13205;DHT22;6667;52.634;9.226;2023-05-10T08:56:03;15.30;99.90
13205;DHT22;6667;52.634;9.226;2023-05-10T08:58:30;15.40;99.90
13205;DHT22;6667;52.634;9.226;2023-05-10T09:00:58;15.60;99.90
13205;DHT22;6667;52.634;9.226;2023-05-10T09:03:25;15.70;1.00
13205;DHT22;6667;52.634;9.226;2023-05-10T09:05:53;15.90;1.00
13205;DHT22;6667;52.634;9.226;2023-05-10T09:08:23;16.10;99.90
13205;DHT22;6667;52.634;9.226;2023-05-10T09:10:51;16.30;1.00
13205;DHT22;6667;52.634;9.226;2023-05-10T09:13:19;16.30;1.00
13205;DHT22;6667;52.634;9.226;2023-05-10T09:15:46;16.60;1.00
13205;DHT22;6667;52.634;9.226;2023-05-10T09:18:13;16.60;1.00
13205;DHT22;6667;52.634;9.226;2023-05-10T09:20:40;16.40;99.90
13205;DHT22;6667;52.634;9.226;2023-05-10T09:23:09;16.50;99.90
13205;DHT22;6667;52.634;9.226;2023-05-10T09:25:35;16.60;99.90
13205;DHT22;6667;52.634;9.226;2023-05-10T09:28:06;16.80;99.90
13205;DHT22;6667;52.634;9.226;2023-05-10T09:30:33;16.90;99.90
13205;DHT22;6667;52.634;9.226;2023-05-10T09:33:00;17.00;99.90
13205;DHT22;6667;52.634;9.226;2023-05-10T09:35:28;17.10;1.00
13205;DHT22;6667;52.634;9.226;2023-05-10T09:37:57;17.10;1.00
13205;DHT22;6667;52.634;9.226;2023-05-10T09:40:27;17.10;1.00
13205;DHT22;6667;52.634;9.226;2023-05-10T09:42:56;17.20;1.00
13205;DHT22;6667;52.634;9.226;2023-05-10T09:45:24;17.10;1.00
13205;DHT22;6667;52.634;9.226;2023-05-10T09:47:52;17.10;1.00
13205;DHT22;6667;52.634;9.226;2023-05-10T09:50:19;17.10;1.00
13205;DHT22;6667;52.634;9.226;2023-05-10T09:52:47;17.20;1.00
13205;DHT22;6667;52.634;9.226;2023-05-10T09:55:15;17.20;1.00
13205;DHT22;6667;52.634;9.226;2023-05-10T09:57:43;16.80;99.90
13205;DHT22;6667;52.634;9.226;2023-05-10T10:00:10;16.50;1.00
13205;DHT22;6667;52.634;9.226;2023-05-10T10:02:42;16.50;1.00
13205;DHT22;6667;52.634;9.226;2023-05-10T10:05:11;16.60;1.00
13205;DHT22;6667;52.634;9.226;2023-05-10T10:07:38;16.80;1.00
13205;DHT22;6667;52.634;9.226;2023-05-10T10:10:06;16.70;99.90
13205;DHT22;6667;52.634;9.226;2023-05-10T10:12:36;17.00;99.90
13205;DHT22;6667;52.634;9.226;2023-05-10T10:15:07;17.20;99.90
13205;DHT22;6667;52.634;9.226;2023-05-10T10:17:35;17.10;99.90
13205;DHT22;6667;52.634;9.226;2023-05-10T10:20:03;17.30;99.90
13205;DHT22;6667;52.634;9.226;2023-05-10T10:22:30;17.30;99.90
13205;DHT22;6667;52.634;9.226;2023-05-10T10:24:57;17.20;99.90
13205;DHT22;6667;52.634;9.226;2023-05-10T10:27:26;17.00;99.90
13205;DHT22;6667;52.634;9.226;2023-05-10T10:30:02;17.00;99.90
13205;DHT22;6667;52.634;9.226;2023-05-10T10:32:38;17.10;99.90
13205;DHT22;6667;52.634;9.226;2023-05-10T10:35:11;17.30;99.90
13205;DHT22;6667;52.634;9.226;2023-05-10T10:37:45;17.50;99.90
13205;DHT22;6667;52.634;9.226;2023-05-10T10:40:23;17.60;99.90
13205;DHT22;6667;52.634;9.226;2023-05-10T10:42:50;17.70;99.90
13205;DHT22;6667;52.634;9.226;2023-05-10T10:45:19;18.00;99.90
13205;DHT22;6667;52.634;9.226;2023-05-10T10:47:48;18.00;99.90
13205;DHT22;6667;52.634;9.226;2023-05-10T10:50:15;18.00;99.90
13205;DHT22;6667;52.634;9.226;2023-05-10T10:52:43;18.00;99.90
13205;DHT22;6667;52.634;9.226;2023-05-10T10:55:11;18.10;99.90
13205;DHT22;6667;52.634;9.226;2023-05-10T10:57:47;18.40;99.90
13205;DHT22;6667;52.634;9.226;2023-05-10T11:00:28;18.30;99.90
13205;DHT22;6667;52.634;9.226;2023-05-10T11:02:58;18.50;99.90
13205;DHT22;6667;52.634;9.226;2023-05-10T11:05:39;18.50;99.90
13205;DHT22;6667;52.634;9.226;2023-05-10T11:11:02;18.90;99.90
13205;DHT22;6667;52.634;9.226;2023-05-10T11:13:33;18.30;99.90
13205;DHT22;6667;52.634;9.226;2023-05-10T11:16:10;18.30;99.90
13205;DHT22;6667;52.634;9.226;2023-05-10T11:18:39;18.50;99.90
13205;DHT22;6667;52.634;9.226;2023-05-10T11:21:08;18.40;99.90
13205;DHT22;6667;52.634;9.226;2023-05-10T11:23:49;18.20;99.90
13205;DHT22;6667;52.634;9.226;2023-05-10T11:26:16;18.00;99.90
13205;DHT22;6667;52.634;9.226;2023-05-10T11:28:44;18.20;99.90
13205;DHT22;6667;52.634;9.226;2023-05-10T11:31:13;18.20;99.90
13205;DHT22;6667;52.634;9.226;2023-05-10T11:33:44;17.90;99.90
13205;DHT22;6667;52.634;9.226;2023-05-10T11:36:12;17.80;99.90
13205;DHT22;6667;52.634;9.226;2023-05-10T11:38:39;18.00;99.90
13205;DHT22;6667;52.634;9.226;2023-05-10T11:41:07;18.20;99.90
13205;DHT22;6667;52.634;9.226;2023-05-10T11:43:34;18.10;99.90
13205;DHT22;6667;52.634;9.226;2023-05-10T11:46:04;18.00;99.90
13205;DHT22;6667;52.634;9.226;2023-05-10T11:48:31;17.70;99.90
13205;DHT22;6667;52.634;9.226;2023-05-10T11:51:00;17.40;99.90
13205;DHT22;6667;52.634;9.226;2023-05-10T11:53:27;17.10;99.90
13205;DHT22;6667;52.634;9.226;2023-05-10T11:55:55;17.00;99.90
13205;DHT22;6667;52.634;9.226;2023-05-10T11:58:23;17.10;1.00
13205;DHT22;6667;52.634;9.226;2023-05-10T12:00:50;17.30;99.90
13205;DHT22;6667;52.634;9.226;2023-05-10T12:03:17;17.40;99.90
13205;DHT22;6667;52.634;9.226;2023-05-10T12:05:44;17.40;99.90
13205;DHT22;6667;52.634;9.226;2023-05-10T12:08:13;17.40;99.90
13205;DHT22;6667;52.634;9.226;2023-05-10T12:10:40;17.50;99.90
13205;DHT22;6667;52.634;9.226;2023-05-10T12:13:11;17.50;99.90
13205;DHT22;6667;52.634;9.226;2023-05-10T12:15:38;17.40;99.90
13205;DHT22;6667;52.634;9.226;2023-05-10T12:18:05;17.30;1.00
13205;DHT22;6667;52.634;9.226;2023-05-10T12:20:32;17.20;99.90
13205;DHT22;6667;52.634;9.226;2023-05-10T12:22:59;17.20;1.00
13205;DHT22;6667;52.634;9.226;2023-05-10T12:25:32;17.20;99.90
13205;DHT22;6667;52.634;9.226;2023-05-10T12:28:02;17.10;99.90
13205;DHT22;6667;52.634;9.226;2023-05-10T12:30:30;17.10;99.90
13205;DHT22;6667;52.634;9.226;2023-05-10T12:33:01;17.10;1.00
13205;DHT22;6667;52.634;9.226;2023-05-10T12:35:30;17.30;1.00
13205;DHT22;6667;52.634;9.226;2023-05-10T12:37:57;17.60;1.00
13205;DHT22;6667;52.634;9.226;2023-05-10T12:40:24;17.60;1.00
13205;DHT22;6667;52.634;9.226;2023-05-10T12:42:52;17.60;1.00
13205;DHT22;6667;52.634;9.226;2023-05-10T12:45:19;17.40;1.00
13205;DHT22;6667;52.634;9.226;2023-05-10T12:47:46;17.40;1.00
13205;DHT22;6667;52.634;9.226;2023-05-10T12:50:12;17.30;1.00
13205;DHT22;6667;52.634;9.226;2023-05-10T12:52:39;17.30;1.00
13205;DHT22;6667;52.634;9.226;2023-05-10T12:55:06;17.30;1.00
13205;DHT22;6667;52.634;9.226;2023-05-10T12:57:33;17.50;1.00
13205;DHT22;6667;52.634;9.226;2023-05-10T13:00:02;17.70;1.00
13205;DHT22;6667;52.634;9.226;2023-05-10T13:02:30;17.90;1.00
13205;DHT22;6667;52.634;9.226;2023-05-10T13:04:57;18.40;1.00
13205;DHT22;6667;52.634;9.226;2023-05-10T13:07:23;18.70;99.90
13205;DHT22;6667;52.634;9.226;2023-05-10T13:09:50;18.70;99.90
13205;DHT22;6667;52.634;9.226;2023-05-10T13:12:17;18.60;99.90
13205;DHT22;6667;52.634;9.226;2023-05-10T13:14:44;18.60;99.90
13205;DHT22;6667;52.634;9.226;2023-05-10T13:17:12;18.70;99.90
13205;DHT22;6667;52.634;9.226;2023-05-10T13:19:38;18.70;99.90
13205;DHT22;6667;52.634;9.226;2023-05-10T13:22:05;18.80;99.90
13205;DHT22;6667;52.634;9.226;2023-05-10T13:24:32;19.20;99.90
13205;DHT22;6667;52.634;9.226;2023-05-10T13:26:59;19.30;99.90
13205;DHT22;6667;52.634;9.226;2023-05-10T13:29:25;19.40;99.90
13205;DHT22;6667;52.634;9.226;2023-05-10T13:31:52;19.30;99.90
13205;DHT22;6667;52.634;9.226;2023-05-10T13:34:20;19.30;99.90
13205;DHT22;6667;52.634;9.226;2023-05-10T13:36:47;19.40;99.90
13205;DHT22;6667;52.634;9.226;2023-05-10T13:39:14;19.70;99.90
13205;DHT22;6667;52.634;9.226;2023-05-10T13:41:41;19.60;99.90
13205;DHT22;6667;52.634;9.226;2023-05-10T13:44:08;19.40;99.90
13205;DHT22;6667;52.634;9.226;2023-05-10T13:46:35;19.40;99.90
13205;DHT22;6667;52.634;9.226;2023-05-10T13:49:01;19.50;99.90
13205;DHT22;6667;52.634;9.226;2023-05-10T13:51:30;19.60;99.90
13205;DHT22;6667;52.634;9.226;2023-05-10T13:53:57;19.40;99.90
13205;DHT22;6667;52.634;9.226;2023-05-10T13:56:24;19.10;99.90
13205;DHT22;6667;52.634;9.226;2023-05-10T13:58:51;19.00;99.90
13205;DHT22;6667;52.634;9.226;2023-05-10T14:01:18;19.00;99.90
13205;DHT22;6667;52.634;9.226;2023-05-10T14:03:45;18.80;99.90
13205;DHT22;6667;52.634;9.226;2023-05-10T14:06:11;18.70;99.90
13205;DHT22;6667;52.634;9.226;2023-05-10T14:08:40;18.50;99.90
13205;DHT22;6667;52.634;9.226;2023-05-10T14:11:06;18.80;99.90
13205;DHT22;6667;52.634;9.226;2023-05-10T14:13:33;19.00;99.90
13205;DHT22;6667;52.634;9.226;2023-05-10T14:16:00;19.20;99.90
13205;DHT22;6667;52.634;9.226;2023-05-10T14:18:27;19.10;99.90
13205;DHT22;6667;52.634;9.226;2023-05-10T14:20:54;19.00;99.90
13205;DHT22;6667;52.634;9.226;2023-05-10T14:23:22;19.50;99.90
13205;DHT22;6667;52.634;9.226;2023-05-10T14:25:52;19.70;99.90
13205;DHT22;6667;52.634;9.226;2023-05-10T14:28:18;19.60;99.90
13205;DHT22;6667;52.634;9.226;2023-05-10T14:30:46;19.50;99.90
13205;DHT22;6667;52.634;9.226;2023-05-10T14:33:13;19.50;99.90
13205;DHT22;6667;52.634;9.226;2023-05-10T14:35:39;19.70;99.90
13205;DHT22;6667;52.634;9.226;2023-05-10T14:38:06;19.90;99.90
13205;DHT22;6667;52.634;9.226;2023-05-10T14:40:33;19.90;99.90
13205;DHT22;6667;52.634;9.226;2023-05-10T14:43:01;20.00;99.90
13205;DHT22;6667;52.634;9.226;2023-05-10T14:45:28;20.20;99.90
13205;DHT22;6667;52.634;9.226;2023-05-10T14:47:55;20.30;99.90
13205;DHT22;6667;52.634;9.226;2023-05-10T14:50:22;20.30;99.90
13205;DHT22;6667;52.634;9.226;2023-05-10T14:52:49;20.10;99.90
13205;DHT22;6667;52.634;9.226;2023-05-10T14:55:16;20.20;99.90
13205;DHT22;6667;52.634;9.226;2023-05-10T14:57:42;20.30;99.90
13205;DHT22;6667;52.634;9.226;2023-05-10T15:00:15;20.20;99.90
13205;DHT22;6667;52.634;9.226;2023-05-10T15:02:42;20.20;99.90
13205;DHT22;6667;52.634;9.226;2023-05-10T15:05:08;20.40;99.90
13205;DHT22;6667;52.634;9.226;2023-05-10T15:07:36;20.20;99.90
13205;DHT22;6667;52.634;9.226;2023-05-10T15:10:05;19.90;99.90
13205;DHT22;6667;52.634;9.226;2023-05-10T15:12:33;19.90;99.90
13205;DHT22;6667;52.634;9.226;2023-05-10T15:15:01;19.70;99.90
13205;DHT22;6667;52.634;9.226;2023-05-10T15:17:30;19.70;99.90
13205;DHT22;6667;52.634;9.226;2023-05-10T15:19:58;19.90;99.90
13205;DHT22;6667;52.634;9.226;2023-05-10T15:22:25;20.00;99.90
13205;DHT22;6667;52.634;9.226;2023-05-10T15:24:53;19.80;99.90
13205;DHT22;6667;52.634;9.226;2023-05-10T15:27:21;19.90;99.90
13205;DHT22;6667;52.634;9.226;2023-05-10T15:29:48;19.90;99.90
13205;DHT22;6667;52.634;9.226;2023-05-10T15:32:16;19.70;99.90
13205;DHT22;6667;52.634;9.226;2023-05-10T15:34:44;20.00;99.90
13205;DHT22;6667;52.634;9.226;2023-05-10T15:37:11;19.80;99.90
13205;DHT22;6667;52.634;9.226;2023-05-10T15:39:39;19.80;99.90
13205;DHT22;6667;52.634;9.226;2023-05-10T15:42:06;19.80;99.90
13205;DHT22;6667;52.634;9.226;2023-05-10T15:44:34;19.70;99.90
13205;DHT22;6667;52.634;9.226;2023-05-10T15:47:03;19.70;99.90
13205;DHT22;6667;52.634;9.226;2023-05-10T15:49:31;19.60;99.90
13205;DHT22;6667;52.634;9.226;2023-05-10T15:51:59;19.70;99.90
13205;DHT22;6667;52.634;9.226;2023-05-10T15:54:27;19.80;99.90
13205;DHT22;6667;52.634;9.226;2023-05-10T15:56:54;19.90;99.90
13205;DHT22;6667;52.634;9.226;2023-05-10T15:59:22;19.80;99.90
13205;DHT22;6667;52.634;9.226;2023-05-10T16:01:49;19.80;99.90
13205;DHT22;6667;52.634;9.226;2023-05-10T16:04:17;19.60;99.90
13205;DHT22;6667;52.634;9.226;2023-05-10T16:06:44;19.40;99.90
13205;DHT22;6667;52.634;9.226;2023-05-10T16:09:12;19.20;99.90
13205;DHT22;6667;52.634;9.226;2023-05-10T16:11:41;19.30;99.90
13205;DHT22;6667;52.634;9.226;2023-05-10T16:14:08;19.60;99.90